• Join FlightAware (Why Join?)
  • Login
  • US Flag 
06:57PM EST


 

Airport Tracker/Info


-or-


 

Live Flight TrackerFlight Track Log ✈ SKW6492 ✈ 11-Jul-2014 ✈ KDEN - KCOD

Flight Track Log - Related Links

Times and Time Zones

All times are in EDT time to prevent confusion due to time zone crossing. See the SKW6492 flight status page for this flight to view local times or setup timezone preferences in your user account.

Time Position Orientation Groundspeed Altitude Reporting Facility
EDT Latitude Longitude Course Direction KTS MPH feet Rate Location/Type
10:21PM 39.9000 -104.5500 75° East 209 241 8,000  Level Denver TRACON
10:22PM 39.9167 -104.4667 75° East 276 318 9,300 1,474 Climbing Denver TRACON
10:23PM 39.9333 -104.3667 78° East 307 353 10,800 1,745 Climbing Denver TRACON
10:25PM 40.0425 -104.3150 20° North 318 366 13,400 1,852 Climbing Denver Center
10:26PM 40.1411 -104.3381 350° North 330 380 15,400 1,707 Climbing Denver Center
10:27PM 40.2292 -104.3750 342° North 339 390 16,900 1,220 Climbing Denver Center
10:28PM 40.3092 -104.4472 325° Northwest 350 403 17,900 1,065 Climbing Denver Center
10:29PM 40.4008 -104.5239 328° Northwest 362 417 19,100 1,122 Climbing Denver Center
10:30PM 40.4872 -104.5975 327° Northwest 368 423 20,200 1,024 Climbing Denver Center
10:31PM 40.5819 -104.6778 327° Northwest 370 426 21,200 726 Climbing Denver Center
10:32PM 40.6708 -104.7514 328° Northwest 372 428 21,700 484 Climbing Denver Center
10:33PM 40.7611 -104.8283 327° Northwest 381 438 22,200 488 Climbing Denver Center
10:34PM 40.8594 -104.8861 336° Northwest 389 448 22,700 390 Climbing Denver Center
10:35PM 40.9603 -104.9336 340° North 389 448 23,000 581 Climbing Denver Center
10:36PM 41.0786 -104.9939 339° North 400 460 23,900 829 Climbing Denver Center
10:37PM 41.1797 -105.0422 340° North 404 465 24,700 634 Climbing Denver Center
10:38PM 41.3003 -105.1003 340° North 410 472 25,200 484 Climbing Denver Center
10:39PM 41.4050 -105.1556 338° Northwest 417 480 25,700 484 Climbing Denver Center
10:40PM 41.5292 -105.2178 339° North 423 487 26,200 488 Climbing Denver Center
10:41PM 41.6175 -105.3075 323° Northwest 429 494 26,700 537 Climbing Denver Center
10:42PM 41.7003 -105.4028 319° Northwest 416 479 27,300 726 Climbing Denver Center
10:43PM 41.7928 -105.5158 318° Northwest 406 467 28,200 774 Climbing Denver Center
10:44PM 41.8725 -105.6106 319° Northwest 402 463 28,900 780 Climbing Denver Center
10:45PM 41.9636 -105.7214 318° Northwest 397 457 29,800 683 Climbing Denver Center
10:46PM 42.0422 -105.8178 318° Northwest 397 457 30,300 435 Climbing Denver Center
10:47PM 42.1192 -105.9133 317° Northwest 392 451 30,700 290 Climbing Denver Center
10:48PM 42.2150 -106.0303 318° Northwest 408 470 30,900 195 Climbing Denver Center
10:49PM 42.2975 -106.1294 318° Northwest 414 476 31,100 244 Climbing Denver Center
10:50PM 42.3931 -106.2497 317° Northwest 416 479 31,400 339 Climbing Denver Center
10:52PM 42.4767 -106.3525 318° Northwest 420 483 31,800 290 Climbing Denver Center
10:53PM 42.5722 -106.4717 317° Northwest 421 484 32,000 97 Climbing Denver Center
10:54PM 42.6558 -106.5778 317° Northwest 426 490 32,000  Level Denver Center
10:55PM 42.7425 -106.6850 318° Northwest 434 499 32,000  Level Denver Center
10:56PM 42.8403 -106.8094 317° Northwest 435 501 32,000  Level Denver Center
10:57PM 42.9217 -106.9131 317° Northwest 422 486 32,000  Level Denver Center
10:58PM 43.0178 -107.0339 317° Northwest 420 483 32,000  Level Denver Center
10:59PM 43.0994 -107.1369 317° Northwest 419 482 32,000  Level Denver Center
11:00PM 43.1675 -107.2258 316° Northwest 416 479 32,000  Level Salt Lake Center
11:01PM 43.2500 -107.3350 316° Northwest 415 478 32,000  Level Salt Lake Center
11:02PM 43.3308 -107.4442 316° Northwest 413 475 32,000  Level Salt Lake Center
11:03PM 43.4142 -107.5517 317° Northwest 412 474 32,000  Level Salt Lake Center
11:04PM 43.5142 -107.6828 316° Northwest 412 474 32,000 -146 Level Salt Lake Center
11:05PM 43.5983 -107.7872 318° Northwest 412 474 31,700 -1,415 Descending Salt Lake Center
11:06PM 43.6856 -107.9006 317° Northwest 420 483 29,100 -2,634 Descending Salt Lake Center
11:07PM 43.7739 -108.0178 316° Northwest 434 499 26,300 -2,634 Descending Salt Lake Center
11:08PM 43.8569 -108.1308 316° Northwest 430 495 23,700 -2,537 Descending Salt Lake Center
11:09PM 43.9447 -108.2144 326° Northwest 396 456 21,100 -2,341 Descending Salt Lake Center
11:10PM 44.0339 -108.2847 330° Northwest 376 433 18,900 -2,000 Descending Salt Lake Center
11:11PM 44.1189 -108.3494 331° Northwest 363 418 17,000 -2,146 Descending Salt Lake Center
11:12PM 44.2203 -108.4253 332° Northwest 352 405 14,500 -2,244 Descending Salt Lake Center
11:13PM 44.3044 -108.4892 331° Northwest 349 402 12,400 -1,220 Descending Salt Lake Center
11:14PM 44.3875 -108.5528 331° Northwest 346 398 12,000 -585 Descending Salt Lake Center
11:15PM 44.4703 -108.6158 331° Northwest 343 395 11,200 -829 Descending Salt Lake Center
11:16PM 44.5464 -108.6725 332° Northwest 332 382 10,300 -1,033 Descending Salt Lake Center
11:17PM 44.6094 -108.7228 330° Northwest 297 342 9,100 -927 Descending Salt Lake Center
11:18PM 44.6439 -108.7869 307° West 254 292 8,400 -537 Descending Salt Lake Center
11:19PM 44.6181 -108.8522 241° Southwest 213 245 8,000 -585 Descending Salt Lake Center
11:20PM 44.5842 -108.9125 232° Southwest 203 234 7,200 -1,024 Descending Salt Lake Center
11:21PM 44.5519 -108.9686 231° Southwest 177 204 5,900 -683 Descending Salt Lake Center
11:22PM 44.5269 -109.0119 231° Southwest 172 198 5,800 -97 Descending Salt Lake Center